Portada
METAR-TAF:

METAR-TAF

Aeroports :

Txità, Rússia

latitud: 52-05N, longitud: 113-29E, altitud: 685 m

Observació

L'informe es va fer fa 23 minuts, a les 01:00 UTC
Vent 6 kt del Sud/Sud-Oest
Temperatura 16°C
Humitat 25%
Pressió 1007 hPa
Visibilitat 10 km o més

METAR: UIAA 170100Z 20003MPS 9999 NSC 16/M04 Q1007 R29/70D NOSIG RMK QFE697/0929

Hora: 10:23 (01:23 UTC)

Pronòstic

L'informe es va fer fa 2 hores i 23 minuts, a les 23:00 UTC
Pronòstic vàlid del 17 a les 00 UTC al 17 a les 24 UTC
Vent 10 kt del Oest/Nord-Oest amb ràfegues de 21 kt
Visibilitat 10 km o més
Núvols disperses a una alçada de 4000 ft, Cumulonimbus.
Temporalment
l' 17 a les 00 UTC al 17 a les 03 UTC
Vent 6 kt del Sud/Sud-Oest amb ràfegues de 16 kt
Temporalment
l' 17 a les 03 UTC al 17 a les 24 UTC
Vent 6 kt del Nord amb ràfegues de 16 kt

TAF: UIAA 162300Z 1700/1724 29005G11MPS 9999 SCT040CB TEMPO 1700/1703 20003G08MPS TEMPO 1703/1724 35003G08MPS

Observacions i pronòstics meteorològics de més de 4000 aeroports (METAR i TAF).

Les estacions disponibles són els punts grocs i vermells al mapa.

Posi el ratolí al punt desitjat per veure el nom de l'estació.

Feu clic per veure les observacions i els pronòstics meteorològics.

Per canviar el mapa: feu clic els botons verds amb una creu de color negre per apropar; al botó verd amb un guió per allunyar la imatge; o en les fletxes verdes per a mapes adjacents.


METAR-TAF: